sensor_id;sensor_type;location;lat;lon;timestamp;P1;durP1;ratioP1;P2;durP2;ratioP2
33593;SDS011;19920;52.242;20.940;2022-07-29T00:00:06;7.93;;;4.05;;
33593;SDS011;19920;52.242;20.940;2022-07-29T00:02:33;6.13;;;3.67;;
33593;SDS011;19920;52.242;20.940;2022-07-29T00:04:58;5.15;;;3.40;;
33593;SDS011;19920;52.242;20.940;2022-07-29T00:07:24;12.27;;;3.63;;
33593;SDS011;19920;52.242;20.940;2022-07-29T00:09:50;6.95;;;3.28;;
33593;SDS011;19920;52.242;20.940;2022-07-29T00:12:16;7.25;;;3.70;;
33593;SDS011;19920;52.242;20.940;2022-07-29T00:14:42;4.90;;;3.00;;
33593;SDS011;19920;52.242;20.940;2022-07-29T00:17:07;7.15;;;3.45;;
33593;SDS011;19920;52.242;20.940;2022-07-29T00:19:33;12.00;;;3.70;;
33593;SDS011;19920;52.242;20.940;2022-07-29T00:21:59;7.72;;;3.45;;
33593;SDS011;19920;52.242;20.940;2022-07-29T00:24:26;5.97;;;3.30;;
33593;SDS011;19920;52.242;20.940;2022-07-29T00:26:51;4.40;;;2.90;;
33593;SDS011;19920;52.242;20.940;2022-07-29T00:29:17;4.75;;;3.30;;
33593;SDS011;19920;52.242;20.940;2022-07-29T00:31:43;4.78;;;2.90;;
33593;SDS011;19920;52.242;20.940;2022-07-29T00:34:09;6.20;;;3.10;;
33593;SDS011;19920;52.242;20.940;2022-07-29T00:36:54;8.45;;;3.22;;
33593;SDS011;19920;52.242;20.940;2022-07-29T00:39:20;6.03;;;2.80;;
33593;SDS011;19920;52.242;20.940;2022-07-29T00:41:46;7.45;;;2.92;;
33593;SDS011;19920;52.242;20.940;2022-07-29T00:44:11;7.38;;;2.78;;
33593;SDS011;19920;52.242;20.940;2022-07-29T00:46:37;7.68;;;2.88;;
33593;SDS011;19920;52.242;20.940;2022-07-29T00:49:03;5.57;;;2.65;;
33593;SDS011;19920;52.242;20.940;2022-07-29T00:51:28;6.00;;;2.85;;
33593;SDS011;19920;52.242;20.940;2022-07-29T00:53:55;5.45;;;2.67;;
33593;SDS011;19920;52.242;20.940;2022-07-29T00:56:21;5.93;;;2.72;;
33593;SDS011;19920;52.242;20.940;2022-07-29T00:58:47;9.68;;;2.95;;
33593;SDS011;19920;52.242;20.940;2022-07-29T01:01:15;6.55;;;2.70;;
33593;SDS011;19920;52.242;20.940;2022-07-29T01:03:40;5.68;;;2.47;;
33593;SDS011;19920;52.242;20.940;2022-07-29T01:06:06;4.97;;;2.80;;
33593;SDS011;19920;52.242;20.940;2022-07-29T01:08:32;5.18;;;2.78;;
33593;SDS011;19920;52.242;20.940;2022-07-29T01:10:58;8.23;;;3.00;;
33593;SDS011;19920;52.242;20.940;2022-07-29T01:13:26;4.55;;;2.60;;
33593;SDS011;19920;52.242;20.940;2022-07-29T01:15:56;5.22;;;2.67;;
33593;SDS011;19920;52.242;20.940;2022-07-29T01:18:33;7.25;;;2.55;;
33593;SDS011;19920;52.242;20.940;2022-07-29T01:32:39;4.95;;;2.33;;
33593;SDS011;19920;52.242;20.940;2022-07-29T01:34:52;4.88;;;2.78;;
33593;SDS011;19920;52.242;20.940;2022-07-29T01:37:32;5.00;;;2.50;;
33593;SDS011;19920;52.242;20.940;2022-07-29T01:40:08;4.30;;;2.00;;
33593;SDS011;19920;52.242;20.940;2022-07-29T01:42:43;3.53;;;2.00;;
33593;SDS011;19920;52.242;20.940;2022-07-29T01:50:56;4.72;;;2.17;;
33593;SDS011;19920;52.242;20.940;2022-07-29T01:53:41;7.32;;;2.30;;
33593;SDS011;19920;52.242;20.940;2022-07-29T01:56:11;4.13;;;2.30;;
33593;SDS011;19920;52.242;20.940;2022-07-29T01:58:38;5.43;;;2.40;;
33593;SDS011;19920;52.242;20.940;2022-07-29T02:01:05;5.32;;;2.17;;
33593;SDS011;19920;52.242;20.940;2022-07-29T02:03:34;4.35;;;2.10;;
33593;SDS011;19920;52.242;20.940;2022-07-29T02:06:01;4.10;;;2.08;;
33593;SDS011;19920;52.242;20.940;2022-07-29T02:08:29;6.43;;;2.00;;
33593;SDS011;19920;52.242;20.940;2022-07-29T02:10:57;6.95;;;2.20;;
33593;SDS011;19920;52.242;20.940;2022-07-29T02:13:25;4.75;;;2.10;;
33593;SDS011;19920;52.242;20.940;2022-07-29T02:15:52;5.63;;;2.40;;
33593;SDS011;19920;52.242;20.940;2022-07-29T02:18:20;6.22;;;2.10;;
33593;SDS011;19920;52.242;20.940;2022-07-29T02:20:49;4.82;;;2.13;;
33593;SDS011;19920;52.242;20.940;2022-07-29T02:23:20;3.75;;;2.10;;
33593;SDS011;19920;52.242;20.940;2022-07-29T02:25:48;7.50;;;2.13;;
33593;SDS011;19920;52.242;20.940;2022-07-29T02:28:16;5.22;;;2.13;;
33593;SDS011;19920;52.242;20.940;2022-07-29T02:30:44;6.80;;;1.70;;
33593;SDS011;19920;52.242;20.940;2022-07-29T02:33:12;4.15;;;2.13;;
33593;SDS011;19920;52.242;20.940;2022-07-29T02:35:40;3.90;;;2.08;;
33593;SDS011;19920;52.242;20.940;2022-07-29T02:38:09;6.97;;;1.85;;
33593;SDS011;19920;52.242;20.940;2022-07-29T02:40:58;4.93;;;1.90;;
33593;SDS011;19920;52.242;20.940;2022-07-29T02:43:28;4.30;;;2.10;;
33593;SDS011;19920;52.242;20.940;2022-07-29T02:45:56;6.15;;;2.05;;
33593;SDS011;19920;52.242;20.940;2022-07-29T02:48:27;5.40;;;1.95;;
33593;SDS011;19920;52.242;20.940;2022-07-29T02:51:01;7.07;;;2.13;;
33593;SDS011;19920;52.242;20.940;2022-07-29T02:53:33;4.50;;;1.80;;
33593;SDS011;19920;52.242;20.940;2022-07-29T02:56:01;3.22;;;1.80;;
33593;SDS011;19920;52.242;20.940;2022-07-29T02:58:40;6.05;;;1.77;;
33593;SDS011;19920;52.242;20.940;2022-07-29T03:01:14;2.85;;;1.63;;
33593;SDS011;19920;52.242;20.940;2022-07-29T03:03:42;4.18;;;1.88;;
33593;SDS011;19920;52.242;20.940;2022-07-29T03:06:12;3.20;;;1.80;;
33593;SDS011;19920;52.242;20.940;2022-07-29T03:08:39;4.85;;;1.50;;
33593;SDS011;19920;52.242;20.940;2022-07-29T03:11:07;5.90;;;1.80;;
33593;SDS011;19920;52.242;20.940;2022-07-29T03:13:33;3.05;;;1.85;;
33593;SDS011;19920;52.242;20.940;2022-07-29T03:16:00;3.90;;;1.65;;
33593;SDS011;19920;52.242;20.940;2022-07-29T03:18:27;2.58;;;1.65;;
33593;SDS011;19920;52.242;20.940;2022-07-29T03:20:54;4.07;;;1.58;;
33593;SDS011;19920;52.242;20.940;2022-07-29T03:23:20;4.25;;;1.83;;
33593;SDS011;19920;52.242;20.940;2022-07-29T03:25:48;3.22;;;1.58;;
33593;SDS011;19920;52.242;20.940;2022-07-29T03:28:14;4.05;;;1.63;;
33593;SDS011;19920;52.242;20.940;2022-07-29T03:30:40;3.33;;;1.65;;
33593;SDS011;19920;52.242;20.940;2022-07-29T03:33:05;2.53;;;1.70;;
33593;SDS011;19920;52.242;20.940;2022-07-29T03:35:31;4.65;;;1.75;;
33593;SDS011;19920;52.242;20.940;2022-07-29T03:37:57;5.05;;;1.70;;
33593;SDS011;19920;52.242;20.940;2022-07-29T03:40:25;2.97;;;1.60;;
33593;SDS011;19920;52.242;20.940;2022-07-29T03:42:56;3.25;;;1.88;;
33593;SDS011;19920;52.242;20.940;2022-07-29T03:45:24;4.60;;;1.58;;
33593;SDS011;19920;52.242;20.940;2022-07-29T03:47:53;3.30;;;2.00;;
33593;SDS011;19920;52.242;20.940;2022-07-29T03:50:21;3.38;;;1.60;;
33593;SDS011;19920;52.242;20.940;2022-07-29T03:52:48;5.28;;;1.40;;
33593;SDS011;19920;52.242;20.940;2022-07-29T03:55:14;2.80;;;1.40;;
33593;SDS011;19920;52.242;20.940;2022-07-29T03:57:40;3.97;;;1.55;;
33593;SDS011;19920;52.242;20.940;2022-07-29T04:00:08;2.90;;;1.60;;
33593;SDS011;19920;52.242;20.940;2022-07-29T04:02:34;3.38;;;1.30;;
33593;SDS011;19920;52.242;20.940;2022-07-29T04:05:00;3.42;;;1.80;;
33593;SDS011;19920;52.242;20.940;2022-07-29T04:07:26;2.72;;;1.60;;
33593;SDS011;19920;52.242;20.940;2022-07-29T04:09:52;3.33;;;1.73;;
33593;SDS011;19920;52.242;20.940;2022-07-29T04:12:18;3.70;;;1.40;;
33593;SDS011;19920;52.242;20.940;2022-07-29T04:14:43;2.80;;;1.60;;
33593;SDS011;19920;52.242;20.940;2022-07-29T04:17:09;7.00;;;1.77;;
33593;SDS011;19920;52.242;20.940;2022-07-29T04:19:34;3.15;;;1.33;;
33593;SDS011;19920;52.242;20.940;2022-07-29T04:22:00;3.45;;;1.55;;
33593;SDS011;19920;52.242;20.940;2022-07-29T04:24:26;3.70;;;1.35;;
33593;SDS011;19920;52.242;20.940;2022-07-29T04:26:52;4.55;;;1.60;;
33593;SDS011;19920;52.242;20.940;2022-07-29T04:29:18;4.93;;;1.83;;
33593;SDS011;19920;52.242;20.940;2022-07-29T04:31:45;4.78;;;1.60;;
33593;SDS011;19920;52.242;20.940;2022-07-29T04:34:11;5.47;;;1.77;;
33593;SDS011;19920;52.242;20.940;2022-07-29T04:36:36;4.93;;;1.50;;
33593;SDS011;19920;52.242;20.940;2022-07-29T04:39:02;2.92;;;1.55;;
33593;SDS011;19920;52.242;20.940;2022-07-29T04:41:28;3.30;;;1.50;;
33593;SDS011;19920;52.242;20.940;2022-07-29T04:43:54;4.53;;;1.67;;
33593;SDS011;19920;52.242;20.940;2022-07-29T04:46:20;2.25;;;1.40;;
33593;SDS011;19920;52.242;20.940;2022-07-29T04:48:46;3.95;;;1.50;;
33593;SDS011;19920;52.242;20.940;2022-07-29T04:51:12;3.95;;;1.48;;
33593;SDS011;19920;52.242;20.940;2022-07-29T04:53:39;4.22;;;1.52;;
33593;SDS011;19920;52.242;20.940;2022-07-29T04:56:05;6.30;;;1.63;;
33593;SDS011;19920;52.242;20.940;2022-07-29T04:58:31;4.88;;;1.80;;
33593;SDS011;19920;52.242;20.940;2022-07-29T05:00:58;4.85;;;1.63;;
33593;SDS011;19920;52.242;20.940;2022-07-29T05:03:24;3.10;;;1.30;;
33593;SDS011;19920;52.242;20.940;2022-07-29T05:05:50;10.30;;;1.80;;
33593;SDS011;19920;52.242;20.940;2022-07-29T05:08:15;5.93;;;2.20;;
33593;SDS011;19920;52.242;20.940;2022-07-29T05:10:41;3.85;;;1.75;;
33593;SDS011;19920;52.242;20.940;2022-07-29T05:13:07;3.63;;;1.63;;
33593;SDS011;19920;52.242;20.940;2022-07-29T05:15:33;5.18;;;1.50;;
33593;SDS011;19920;52.242;20.940;2022-07-29T05:18:00;4.00;;;1.40;;
33593;SDS011;19920;52.242;20.940;2022-07-29T05:20:26;2.28;;;1.20;;
33593;SDS011;19920;52.242;20.940;2022-07-29T05:22:54;4.05;;;1.45;;
33593;SDS011;19920;52.242;20.940;2022-07-29T05:25:20;2.33;;;1.27;;
33593;SDS011;19920;52.242;20.940;2022-07-29T05:27:46;4.15;;;1.48;;
33593;SDS011;19920;52.242;20.940;2022-07-29T05:30:12;3.20;;;1.50;;
33593;SDS011;19920;52.242;20.940;2022-07-29T05:32:38;2.85;;;1.13;;
33593;SDS011;19920;52.242;20.940;2022-07-29T05:35:04;2.63;;;1.17;;
33593;SDS011;19920;52.242;20.940;2022-07-29T05:37:30;7.13;;;1.40;;
33593;SDS011;19920;52.242;20.940;2022-07-29T05:39:55;3.80;;;1.38;;
33593;SDS011;19920;52.242;20.940;2022-07-29T05:42:21;4.55;;;1.30;;
33593;SDS011;19920;52.242;20.940;2022-07-29T05:44:47;7.15;;;1.40;;
33593;SDS011;19920;52.242;20.940;2022-07-29T05:47:12;7.00;;;1.45;;
33593;SDS011;19920;52.242;20.940;2022-07-29T05:49:38;2.72;;;0.85;;
33593;SDS011;19920;52.242;20.940;2022-07-29T05:52:04;11.38;;;1.50;;
33593;SDS011;19920;52.242;20.940;2022-07-29T05:54:30;7.10;;;1.50;;
33593;SDS011;19920;52.242;20.940;2022-07-29T05:56:56;5.50;;;1.15;;
33593;SDS011;19920;52.242;20.940;2022-07-29T05:59:21;3.05;;;1.08;;
33593;SDS011;19920;52.242;20.940;2022-07-29T06:01:47;3.65;;;1.20;;
33593;SDS011;19920;52.242;20.940;2022-07-29T06:04:13;2.85;;;1.02;;
33593;SDS011;19920;52.242;20.940;2022-07-29T06:06:38;7.95;;;1.20;;
33593;SDS011;19920;52.242;20.940;2022-07-29T06:09:04;3.30;;;1.27;;
33593;SDS011;19920;52.242;20.940;2022-07-29T06:11:30;1.80;;;0.90;;
33593;SDS011;19920;52.242;20.940;2022-07-29T06:13:55;4.15;;;1.67;;
33593;SDS011;19920;52.242;20.940;2022-07-29T06:16:21;2.97;;;1.20;;
33593;SDS011;19920;52.242;20.940;2022-07-29T06:18:47;2.70;;;1.05;;
33593;SDS011;19920;52.242;20.940;2022-07-29T06:21:12;3.47;;;0.90;;
33593;SDS011;19920;52.242;20.940;2022-07-29T06:23:38;3.25;;;1.02;;
33593;SDS011;19920;52.242;20.940;2022-07-29T06:26:04;3.63;;;0.98;;
33593;SDS011;19920;52.242;20.940;2022-07-29T06:28:31;3.47;;;0.90;;
33593;SDS011;19920;52.242;20.940;2022-07-29T06:30:57;3.47;;;1.20;;
33593;SDS011;19920;52.242;20.940;2022-07-29T06:33:23;2.75;;;0.90;;
33593;SDS011;19920;52.242;20.940;2022-07-29T06:35:49;1.83;;;0.90;;
33593;SDS011;19920;52.242;20.940;2022-07-29T06:38:15;1.92;;;0.88;;
33593;SDS011;19920;52.242;20.940;2022-07-29T06:40:41;4.07;;;1.00;;
33593;SDS011;19920;52.242;20.940;2022-07-29T06:43:38;1.95;;;0.82;;
33593;SDS011;19920;52.242;20.940;2022-07-29T06:46:13;4.07;;;1.13;;
33593;SDS011;19920;52.242;20.940;2022-07-29T06:48:41;6.35;;;1.10;;
33593;SDS011;19920;52.242;20.940;2022-07-29T06:51:07;2.00;;;0.85;;
33593;SDS011;19920;52.242;20.940;2022-07-29T06:53:34;4.72;;;0.93;;
33593;SDS011;19920;52.242;20.940;2022-07-29T06:56:00;4.75;;;1.00;;
33593;SDS011;19920;52.242;20.940;2022-07-29T06:58:27;5.97;;;1.05;;
33593;SDS011;19920;52.242;20.940;2022-07-29T07:00:54;8.98;;;1.35;;
33593;SDS011;19920;52.242;20.940;2022-07-29T07:03:21;8.70;;;1.85;;
33593;SDS011;19920;52.242;20.940;2022-07-29T07:05:47;1.65;;;1.00;;
33593;SDS011;19920;52.242;20.940;2022-07-29T07:08:14;5.18;;;1.00;;
33593;SDS011;19920;52.242;20.940;2022-07-29T07:10:41;7.18;;;1.20;;
33593;SDS011;19920;52.242;20.940;2022-07-29T07:13:07;5.03;;;1.30;;
33593;SDS011;19920;52.242;20.940;2022-07-29T07:15:32;5.55;;;1.15;;
33593;SDS011;19920;52.242;20.940;2022-07-29T07:17:58;5.82;;;1.20;;
33593;SDS011;19920;52.242;20.940;2022-07-29T07:20:24;3.90;;;1.23;;
33593;SDS011;19920;52.242;20.940;2022-07-29T07:22:50;2.88;;;0.90;;
33593;SDS011;19920;52.242;20.940;2022-07-29T07:25:16;7.38;;;1.00;;
33593;SDS011;19920;52.242;20.940;2022-07-29T07:27:42;4.82;;;1.30;;
33593;SDS011;19920;52.242;20.940;2022-07-29T07:30:09;13.52;;;1.48;;
33593;SDS011;19920;52.242;20.940;2022-07-29T07:32:35;4.70;;;1.27;;
33593;SDS011;19920;52.242;20.940;2022-07-29T07:35:01;4.93;;;1.10;;
33593;SDS011;19920;52.242;20.940;2022-07-29T07:37:31;2.83;;;1.15;;
33593;SDS011;19920;52.242;20.940;2022-07-29T07:39:57;2.50;;;0.90;;
33593;SDS011;19920;52.242;20.940;2022-07-29T07:42:23;6.50;;;1.10;;
33593;SDS011;19920;52.242;20.940;2022-07-29T07:44:49;2.13;;;0.85;;
33593;SDS011;19920;52.242;20.940;2022-07-29T07:47:14;3.72;;;0.90;;
33593;SDS011;19920;52.242;20.940;2022-07-29T07:49:45;2.80;;;0.90;;
33593;SDS011;19920;52.242;20.940;2022-07-29T07:52:11;3.40;;;1.02;;
33593;SDS011;19920;52.242;20.940;2022-07-29T07:54:37;4.97;;;0.98;;
33593;SDS011;19920;52.242;20.940;2022-07-29T07:57:03;2.85;;;0.90;;
33593;SDS011;19920;52.242;20.940;2022-07-29T07:59:28;5.82;;;1.20;;
33593;SDS011;19920;52.242;20.940;2022-07-29T08:01:54;4.32;;;0.98;;
33593;SDS011;19920;52.242;20.940;2022-07-29T08:04:20;4.13;;;1.23;;
33593;SDS011;19920;52.242;20.940;2022-07-29T08:06:45;2.22;;;0.93;;
33593;SDS011;19920;52.242;20.940;2022-07-29T08:09:11;4.75;;;1.20;;
33593;SDS011;19920;52.242;20.940;2022-07-29T08:11:37;6.60;;;1.33;;
33593;SDS011;19920;52.242;20.940;2022-07-29T08:14:03;5.57;;;1.20;;
33593;SDS011;19920;52.242;20.940;2022-07-29T08:16:28;11.52;;;1.13;;
33593;SDS011;19920;52.242;20.940;2022-07-29T08:18:54;4.10;;;1.00;;
33593;SDS011;19920;52.242;20.940;2022-07-29T08:21:22;3.47;;;1.30;;
33593;SDS011;19920;52.242;20.940;2022-07-29T08:23:48;2.65;;;1.00;;
33593;SDS011;19920;52.242;20.940;2022-07-29T08:26:17;3.93;;;0.93;;
33593;SDS011;19920;52.242;20.940;2022-07-29T08:28:43;3.70;;;0.98;;
33593;SDS011;19920;52.242;20.940;2022-07-29T08:31:11;3.85;;;0.90;;
33593;SDS011;19920;52.242;20.940;2022-07-29T08:33:37;3.05;;;1.60;;
33593;SDS011;19920;52.242;20.940;2022-07-29T08:36:04;4.65;;;1.02;;
33593;SDS011;19920;52.242;20.940;2022-07-29T08:38:30;3.75;;;1.10;;
33593;SDS011;19920;52.242;20.940;2022-07-29T08:40:56;3.63;;;0.95;;
33593;SDS011;19920;52.242;20.940;2022-07-29T08:43:22;1.95;;;0.82;;
33593;SDS011;19920;52.242;20.940;2022-07-29T08:45:49;4.30;;;1.33;;
33593;SDS011;19920;52.242;20.940;2022-07-29T08:48:17;4.45;;;1.15;;
33593;SDS011;19920;52.242;20.940;2022-07-29T08:50:46;3.42;;;0.90;;
33593;SDS011;19920;52.242;20.940;2022-07-29T08:53:13;3.75;;;0.90;;
33593;SDS011;19920;52.242;20.940;2022-07-29T08:55:43;3.08;;;0.90;;
33593;SDS011;19920;52.242;20.940;2022-07-29T08:58:10;3.20;;;1.05;;
33593;SDS011;19920;52.242;20.940;2022-07-29T09:00:39;2.92;;;0.85;;
33593;SDS011;19920;52.242;20.940;2022-07-29T09:03:14;5.30;;;0.90;;
33593;SDS011;19920;52.242;20.940;2022-07-29T09:05:43;3.17;;;1.00;;
33593;SDS011;19920;52.242;20.940;2022-07-29T09:08:10;2.90;;;0.80;;
33593;SDS011;19920;52.242;20.940;2022-07-29T09:10:38;3.67;;;0.93;;
33593;SDS011;19920;52.242;20.940;2022-07-29T09:13:03;2.17;;;1.08;;
33593;SDS011;19920;52.242;20.940;2022-07-29T09:15:30;7.80;;;1.30;;
33593;SDS011;19920;52.242;20.940;2022-07-29T09:17:55;8.40;;;1.10;;
33593;SDS011;19920;52.242;20.940;2022-07-29T09:20:23;12.40;;;1.50;;
33593;SDS011;19920;52.242;20.940;2022-07-29T09:22:49;6.72;;;1.00;;
33593;SDS011;19920;52.242;20.940;2022-07-29T09:28:10;6.35;;;1.00;;
33593;SDS011;19920;52.242;20.940;2022-07-29T09:30:50;7.40;;;0.93;;
33593;SDS011;19920;52.242;20.940;2022-07-29T09:33:20;9.55;;;1.20;;
33593;SDS011;19920;52.242;20.940;2022-07-29T09:35:58;5.10;;;0.90;;
33593;SDS011;19920;52.242;20.940;2022-07-29T09:40:56;3.53;;;0.80;;
33593;SDS011;19920;52.242;20.940;2022-07-29T09:43:26;5.70;;;1.05;;
33593;SDS011;19920;52.242;20.940;2022-07-29T09:45:52;6.60;;;1.00;;
33593;SDS011;19920;52.242;20.940;2022-07-29T09:48:20;3.78;;;0.90;;
33593;SDS011;19920;52.242;20.940;2022-07-29T09:50:47;4.53;;;0.80;;
33593;SDS011;19920;52.242;20.940;2022-07-29T09:55:58;3.13;;;0.90;;
33593;SDS011;19920;52.242;20.940;2022-07-29T09:58:24;2.83;;;0.90;;
33593;SDS011;19920;52.242;20.940;2022-07-29T10:00:50;2.78;;;0.90;;
33593;SDS011;19920;52.242;20.940;2022-07-29T10:03:17;3.55;;;0.93;;
33593;SDS011;19920;52.242;20.940;2022-07-29T10:05:43;5.22;;;1.15;;
33593;SDS011;19920;52.242;20.940;2022-07-29T10:08:10;2.78;;;0.77;;
33593;SDS011;19920;52.242;20.940;2022-07-29T10:10:41;8.18;;;1.20;;
33593;SDS011;19920;52.242;20.940;2022-07-29T10:13:08;6.20;;;1.13;;
33593;SDS011;19920;52.242;20.940;2022-07-29T10:15:39;3.10;;;0.90;;
33593;SDS011;19920;52.242;20.940;2022-07-29T10:18:09;4.18;;;0.70;;
33593;SDS011;19920;52.242;20.940;2022-07-29T10:20:36;9.30;;;1.02;;
33593;SDS011;19920;52.242;20.940;2022-07-29T10:23:03;3.72;;;0.80;;
33593;SDS011;19920;52.242;20.940;2022-07-29T10:25:29;3.40;;;0.90;;
33593;SDS011;19920;52.242;20.940;2022-07-29T10:27:55;2.65;;;0.80;;
33593;SDS011;19920;52.242;20.940;2022-07-29T10:30:22;4.18;;;0.60;;
33593;SDS011;19920;52.242;20.940;2022-07-29T10:41:11;4.22;;;0.82;;
33593;SDS011;19920;52.242;20.940;2022-07-29T10:43:59;5.07;;;0.90;;
33593;SDS011;19920;52.242;20.940;2022-07-29T10:46:25;2.38;;;0.80;;
33593;SDS011;19920;52.242;20.940;2022-07-29T10:49:09;4.32;;;1.20;;
33593;SDS011;19920;52.242;20.940;2022-07-29T11:05:12;1.25;;;0.60;;
33593;SDS011;19920;52.242;20.940;2022-07-29T11:10:44;2.72;;;0.85;;
33593;SDS011;19920;52.242;20.940;2022-07-29T11:13:09;5.07;;;0.88;;
33593;SDS011;19920;52.242;20.940;2022-07-29T11:15:54;1.23;;;0.70;;
33593;SDS011;19920;52.242;20.940;2022-07-29T11:18:21;7.13;;;1.08;;
33593;SDS011;19920;52.242;20.940;2022-07-29T11:20:47;2.45;;;0.95;;
33593;SDS011;19920;52.242;20.940;2022-07-29T11:31:36;3.47;;;0.87;;
33593;SDS011;19920;52.242;20.940;2022-07-29T11:34:19;3.20;;;0.60;;
33593;SDS011;19920;52.242;20.940;2022-07-29T11:39:36;2.53;;;0.82;;
33593;SDS011;19920;52.242;20.940;2022-07-29T11:50:11;11.68;;;1.13;;
33593;SDS011;19920;52.242;20.940;2022-07-29T11:52:42;6.65;;;1.17;;
33593;SDS011;19920;52.242;20.940;2022-07-29T11:55:12;4.43;;;1.00;;
33593;SDS011;19920;52.242;20.940;2022-07-29T11:57:53;3.53;;;0.80;;
33593;SDS011;19920;52.242;20.940;2022-07-29T12:00:24;3.95;;;0.70;;
33593;SDS011;19920;52.242;20.940;2022-07-29T12:02:53;1.60;;;0.60;;
33593;SDS011;19920;52.242;20.940;2022-07-29T12:05:20;5.65;;;0.90;;
33593;SDS011;19920;52.242;20.940;2022-07-29T12:07:46;15.25;;;1.20;;
33593;SDS011;19920;52.242;20.940;2022-07-29T12:10:12;8.68;;;0.95;;
33593;SDS011;19920;52.242;20.940;2022-07-29T12:12:38;2.40;;;0.55;;
33593;SDS011;19920;52.242;20.940;2022-07-29T12:15:10;1.80;;;0.60;;
33593;SDS011;19920;52.242;20.940;2022-07-29T12:17:42;3.08;;;0.68;;
33593;SDS011;19920;52.242;20.940;2022-07-29T12:20:08;4.40;;;0.90;;
33593;SDS011;19920;52.242;20.940;2022-07-29T12:22:35;2.88;;;0.68;;
33593;SDS011;19920;52.242;20.940;2022-07-29T12:25:04;1.87;;;0.70;;
33593;SDS011;19920;52.242;20.940;2022-07-29T12:27:34;1.50;;;0.80;;
33593;SDS011;19920;52.242;20.940;2022-07-29T12:30:05;1.52;;;0.73;;
33593;SDS011;19920;52.242;20.940;2022-07-29T12:32:36;2.63;;;0.80;;
33593;SDS011;19920;52.242;20.940;2022-07-29T12:35:13;1.42;;;0.52;;
33593;SDS011;19920;52.242;20.940;2022-07-29T12:37:40;4.95;;;1.00;;
33593;SDS011;19920;52.242;20.940;2022-07-29T12:40:09;1.40;;;0.80;;
33593;SDS011;19920;52.242;20.940;2022-07-29T12:42:37;5.40;;;3.25;;
33593;SDS011;19920;52.242;20.940;2022-07-29T12:45:04;2.08;;;0.90;;
33593;SDS011;19920;52.242;20.940;2022-07-29T12:47:31;2.33;;;0.98;;
33593;SDS011;19920;52.242;20.940;2022-07-29T12:52:43;2.55;;;0.70;;
33593;SDS011;19920;52.242;20.940;2022-07-29T12:55:09;1.38;;;0.68;;
33593;SDS011;19920;52.242;20.940;2022-07-29T12:57:48;2.67;;;0.80;;
33593;SDS011;19920;52.242;20.940;2022-07-29T13:00:21;6.00;;;1.10;;
33593;SDS011;19920;52.242;20.940;2022-07-29T13:02:58;1.15;;;0.60;;
33593;SDS011;19920;52.242;20.940;2022-07-29T13:05:38;3.50;;;0.82;;
33593;SDS011;19920;52.242;20.940;2022-07-29T13:08:12;2.28;;;0.60;;
33593;SDS011;19920;52.242;20.940;2022-07-29T13:10:39;4.78;;;0.80;;
33593;SDS011;19920;52.242;20.940;2022-07-29T13:15:38;2.28;;;0.85;;
33593;SDS011;19920;52.242;20.940;2022-07-29T13:21:09;4.18;;;0.60;;
33593;SDS011;19920;52.242;20.940;2022-07-29T13:23:36;3.22;;;0.70;;
33593;SDS011;19920;52.242;20.940;2022-07-29T13:26:09;2.28;;;0.60;;
33593;SDS011;19920;52.242;20.940;2022-07-29T13:28:36;2.70;;;0.70;;
33593;SDS011;19920;52.242;20.940;2022-07-29T13:31:02;3.45;;;0.80;;
33593;SDS011;19920;52.242;20.940;2022-07-29T13:33:28;3.53;;;0.70;;
33593;SDS011;19920;52.242;20.940;2022-07-29T13:35:53;4.72;;;0.70;;
33593;SDS011;19920;52.242;20.940;2022-07-29T13:38:20;3.22;;;0.80;;
33593;SDS011;19920;52.242;20.940;2022-07-29T13:40:45;3.60;;;0.55;;
33593;SDS011;19920;52.242;20.940;2022-07-29T13:43:11;3.67;;;0.77;;
33593;SDS011;19920;52.242;20.940;2022-07-29T13:45:37;4.32;;;0.70;;
33593;SDS011;19920;52.242;20.940;2022-07-29T13:48:03;2.78;;;0.70;;
33593;SDS011;19920;52.242;20.940;2022-07-29T13:50:29;2.42;;;0.85;;
33593;SDS011;19920;52.242;20.940;2022-07-29T13:52:55;1.67;;;0.65;;
33593;SDS011;19920;52.242;20.940;2022-07-29T13:55:21;1.98;;;0.70;;
33593;SDS011;19920;52.242;20.940;2022-07-29T13:57:46;4.55;;;0.77;;
33593;SDS011;19920;52.242;20.940;2022-07-29T14:00:12;3.33;;;0.90;;
33593;SDS011;19920;52.242;20.940;2022-07-29T14:02:39;1.75;;;0.63;;
33593;SDS011;19920;52.242;20.940;2022-07-29T14:05:06;2.30;;;0.70;;
33593;SDS011;19920;52.242;20.940;2022-07-29T14:07:32;3.85;;;0.80;;
33593;SDS011;19920;52.242;20.940;2022-07-29T14:09:58;5.82;;;1.00;;
33593;SDS011;19920;52.242;20.940;2022-07-29T14:12:24;1.67;;;0.60;;
33593;SDS011;19920;52.242;20.940;2022-07-29T14:14:50;3.17;;;0.80;;
33593;SDS011;19920;52.242;20.940;2022-07-29T14:17:15;2.30;;;0.73;;
33593;SDS011;19920;52.242;20.940;2022-07-29T14:19:41;1.60;;;0.70;;
33593;SDS011;19920;52.242;20.940;2022-07-29T14:22:08;4.97;;;0.70;;
33593;SDS011;19920;52.242;20.940;2022-07-29T14:24:34;3.30;;;0.77;;
33593;SDS011;19920;52.242;20.940;2022-07-29T14:27:00;2.50;;;0.75;;
33593;SDS011;19920;52.242;20.940;2022-07-29T14:29:26;1.40;;;0.63;;
33593;SDS011;19920;52.242;20.940;2022-07-29T14:31:51;1.40;;;0.50;;
33593;SDS011;19920;52.242;20.940;2022-07-29T14:34:17;2.35;;;0.82;;
33593;SDS011;19920;52.242;20.940;2022-07-29T14:36:43;1.38;;;0.70;;
33593;SDS011;19920;52.242;20.940;2022-07-29T14:39:09;6.05;;;1.20;;
33593;SDS011;19920;52.242;20.940;2022-07-29T14:41:34;4.18;;;0.70;;
33593;SDS011;19920;52.242;20.940;2022-07-29T14:44:00;1.35;;;0.68;;
33593;SDS011;19920;52.242;20.940;2022-07-29T14:46:26;1.50;;;0.80;;
33593;SDS011;19920;52.242;20.940;2022-07-29T14:48:52;1.48;;;0.85;;
33593;SDS011;19920;52.242;20.940;2022-07-29T14:51:18;3.13;;;0.63;;
33593;SDS011;19920;52.242;20.940;2022-07-29T14:53:44;3.30;;;0.88;;
33593;SDS011;19920;52.242;20.940;2022-07-29T14:56:09;3.47;;;0.80;;
33593;SDS011;19920;52.242;20.940;2022-07-29T14:58:35;4.20;;;0.88;;
33593;SDS011;19920;52.242;20.940;2022-07-29T15:01:01;1.52;;;0.80;;
33593;SDS011;19920;52.242;20.940;2022-07-29T15:03:27;2.53;;;0.80;;
33593;SDS011;19920;52.242;20.940;2022-07-29T15:05:53;3.17;;;1.55;;
33593;SDS011;19920;52.242;20.940;2022-07-29T15:08:19;0.90;;;0.80;;
33593;SDS011;19920;52.242;20.940;2022-07-29T15:10:45;2.53;;;0.82;;
33593;SDS011;19920;52.242;20.940;2022-07-29T15:13:11;3.20;;;0.90;;
33593;SDS011;19920;52.242;20.940;2022-07-29T15:15:37;4.10;;;1.00;;
33593;SDS011;19920;52.242;20.940;2022-07-29T15:18:03;3.50;;;1.10;;
33593;SDS011;19920;52.242;20.940;2022-07-29T15:20:29;3.97;;;1.00;;
33593;SDS011;19920;52.242;20.940;2022-07-29T15:22:55;3.22;;;1.00;;
33593;SDS011;19920;52.242;20.940;2022-07-29T15:25:21;0.95;;;0.85;;
33593;SDS011;19920;52.242;20.940;2022-07-29T15:27:48;3.25;;;1.10;;
33593;SDS011;19920;52.242;20.940;2022-07-29T15:30:13;1.20;;;0.95;;
33593;SDS011;19920;52.242;20.940;2022-07-29T15:32:41;1.17;;;0.98;;
33593;SDS011;19920;52.242;20.940;2022-07-29T15:35:08;1.67;;;0.80;;
33593;SDS011;19920;52.242;20.940;2022-07-29T15:37:35;2.83;;;0.82;;
33593;SDS011;19920;52.242;20.940;2022-07-29T15:40:05;1.67;;;0.77;;
33593;SDS011;19920;52.242;20.940;2022-07-29T15:42:31;1.55;;;0.90;;
33593;SDS011;19920;52.242;20.940;2022-07-29T15:44:59;1.65;;;0.80;;
33593;SDS011;19920;52.242;20.940;2022-07-29T15:47:27;2.63;;;0.60;;
33593;SDS011;19920;52.242;20.940;2022-07-29T15:49:53;2.25;;;0.85;;
33593;SDS011;19920;52.242;20.940;2022-07-29T15:52:19;2.70;;;0.60;;